sim
Sign-in with your pilot id or email,
or register
Callsign
Passwort

Schedule Details

Flight Number: DLH2211 (1)
Departure: Hamburg Airport (EDDH) at 09:15
Arrival: Munich Airport (EDDM) at 10:30
Route: Lufthansa Passenger Schedule. Enter filed route here before submitting Pirep.

Weather Information
Getting current METAR information for EDDH 241050Z 23012KT 9999 BKN030 17/10 Q1003 TEMPO 24015G25KT
Getting current METAR information for EDDM 241050Z 27005KT 220V300 9999 FEW026 20/13 Q1010 NOSIG

Schedule Frequency

Route Map